sensor_id;sensor_type;location;lat;lon;timestamp;P1;durP1;ratioP1;P2;durP2;ratioP2
1625;SDS011;806;48.770;9.156;2022-12-11T00:02:05;6.70;;;1.87;;
1625;SDS011;806;48.770;9.156;2022-12-11T00:04:32;3.90;;;2.13;;
1625;SDS011;806;48.770;9.156;2022-12-11T00:06:59;5.80;;;2.80;;
1625;SDS011;806;48.770;9.156;2022-12-11T00:09:28;7.33;;;3.03;;
1625;SDS011;806;48.770;9.156;2022-12-11T00:11:54;5.93;;;2.67;;
1625;SDS011;806;48.770;9.156;2022-12-11T00:14:21;5.93;;;1.20;;
1625;SDS011;806;48.770;9.156;2022-12-11T00:16:48;9.23;;;2.30;;
1625;SDS011;806;48.770;9.156;2022-12-11T00:19:15;4.50;;;2.03;;
1625;SDS011;806;48.770;9.156;2022-12-11T00:21:42;5.23;;;2.90;;
1625;SDS011;806;48.770;9.156;2022-12-11T00:24:09;8.03;;;2.63;;
1625;SDS011;806;48.770;9.156;2022-12-11T00:26:38;3.90;;;1.80;;
1625;SDS011;806;48.770;9.156;2022-12-11T00:29:05;3.97;;;1.97;;
1625;SDS011;806;48.770;9.156;2022-12-11T00:31:35;7.97;;;2.33;;
1625;SDS011;806;48.770;9.156;2022-12-11T00:34:05;6.17;;;2.03;;
1625;SDS011;806;48.770;9.156;2022-12-11T00:36:32;4.37;;;2.27;;
1625;SDS011;806;48.770;9.156;2022-12-11T00:39:00;5.57;;;1.47;;
1625;SDS011;806;48.770;9.156;2022-12-11T00:41:27;7.83;;;3.50;;
1625;SDS011;806;48.770;9.156;2022-12-11T00:43:55;8.77;;;3.17;;
1625;SDS011;806;48.770;9.156;2022-12-11T00:46:22;7.20;;;3.77;;
1625;SDS011;806;48.770;9.156;2022-12-11T00:48:49;4.67;;;2.00;;
1625;SDS011;806;48.770;9.156;2022-12-11T00:51:17;9.23;;;2.70;;
1625;SDS011;806;48.770;9.156;2022-12-11T00:53:44;6.57;;;2.30;;
1625;SDS011;806;48.770;9.156;2022-12-11T00:56:12;6.10;;;2.60;;
1625;SDS011;806;48.770;9.156;2022-12-11T00:58:40;4.57;;;2.70;;
1625;SDS011;806;48.770;9.156;2022-12-11T01:01:09;5.53;;;2.60;;
1625;SDS011;806;48.770;9.156;2022-12-11T01:03:38;4.70;;;1.93;;
1625;SDS011;806;48.770;9.156;2022-12-11T01:06:05;5.43;;;1.77;;
1625;SDS011;806;48.770;9.156;2022-12-11T01:08:33;7.80;;;1.50;;
1625;SDS011;806;48.770;9.156;2022-12-11T01:11:00;5.40;;;1.90;;
1625;SDS011;806;48.770;9.156;2022-12-11T01:13:27;4.93;;;2.23;;
1625;SDS011;806;48.770;9.156;2022-12-11T01:15:58;4.80;;;2.07;;
1625;SDS011;806;48.770;9.156;2022-12-11T01:18:26;5.00;;;2.37;;
1625;SDS011;806;48.770;9.156;2022-12-11T01:20:53;5.87;;;2.67;;
1625;SDS011;806;48.770;9.156;2022-12-11T01:23:20;5.87;;;2.73;;
1625;SDS011;806;48.770;9.156;2022-12-11T01:25:47;3.73;;;1.97;;
1625;SDS011;806;48.770;9.156;2022-12-11T01:28:13;7.80;;;3.13;;
1625;SDS011;806;48.770;9.156;2022-12-11T01:30:41;6.10;;;2.10;;
1625;SDS011;806;48.770;9.156;2022-12-11T01:33:08;6.27;;;1.80;;
1625;SDS011;806;48.770;9.156;2022-12-11T01:35:37;8.00;;;2.10;;
1625;SDS011;806;48.770;9.156;2022-12-11T01:38:05;5.70;;;3.20;;
1625;SDS011;806;48.770;9.156;2022-12-11T01:40:32;9.33;;;3.50;;
1625;SDS011;806;48.770;9.156;2022-12-11T01:42:59;4.90;;;2.17;;
1625;SDS011;806;48.770;9.156;2022-12-11T01:45:38;4.23;;;2.50;;
1625;SDS011;806;48.770;9.156;2022-12-11T01:48:07;7.53;;;2.40;;
1625;SDS011;806;48.770;9.156;2022-12-11T01:50:38;5.13;;;2.37;;
1625;SDS011;806;48.770;9.156;2022-12-11T01:53:09;6.27;;;2.27;;
1625;SDS011;806;48.770;9.156;2022-12-11T01:55:39;8.10;;;1.80;;
1625;SDS011;806;48.770;9.156;2022-12-11T01:58:07;6.17;;;2.70;;
1625;SDS011;806;48.770;9.156;2022-12-11T02:00:37;4.80;;;1.90;;
1625;SDS011;806;48.770;9.156;2022-12-11T02:03:04;7.80;;;1.60;;
1625;SDS011;806;48.770;9.156;2022-12-11T02:05:31;6.60;;;1.73;;
1625;SDS011;806;48.770;9.156;2022-12-11T02:07:59;4.03;;;1.60;;
1625;SDS011;806;48.770;9.156;2022-12-11T02:10:30;7.90;;;1.87;;
1625;SDS011;806;48.770;9.156;2022-12-11T02:13:08;4.37;;;1.40;;
1625;SDS011;806;48.770;9.156;2022-12-11T02:15:40;5.30;;;1.20;;
1625;SDS011;806;48.770;9.156;2022-12-11T02:18:15;5.97;;;2.40;;
1625;SDS011;806;48.770;9.156;2022-12-11T02:20:53;4.97;;;1.73;;
1625;SDS011;806;48.770;9.156;2022-12-11T02:23:41;2.40;;;1.30;;
1625;SDS011;806;48.770;9.156;2022-12-11T02:26:35;4.67;;;1.67;;
1625;SDS011;806;48.770;9.156;2022-12-11T02:29:19;5.40;;;1.57;;
1625;SDS011;806;48.770;9.156;2022-12-11T02:31:49;5.30;;;2.27;;
1625;SDS011;806;48.770;9.156;2022-12-11T02:34:22;5.17;;;1.60;;
1625;SDS011;806;48.770;9.156;2022-12-11T02:36:55;4.13;;;1.40;;
1625;SDS011;806;48.770;9.156;2022-12-11T02:39:24;5.07;;;1.87;;
1625;SDS011;806;48.770;9.156;2022-12-11T02:41:53;3.70;;;2.00;;
1625;SDS011;806;48.770;9.156;2022-12-11T02:44:23;5.80;;;2.60;;
1625;SDS011;806;48.770;9.156;2022-12-11T02:46:52;6.60;;;1.30;;
1625;SDS011;806;48.770;9.156;2022-12-11T02:49:20;2.87;;;1.03;;
1625;SDS011;806;48.770;9.156;2022-12-11T02:51:48;5.60;;;1.53;;
1625;SDS011;806;48.770;9.156;2022-12-11T02:54:18;5.60;;;1.53;;
1625;SDS011;806;48.770;9.156;2022-12-11T02:56:50;4.80;;;1.93;;
1625;SDS011;806;48.770;9.156;2022-12-11T02:59:24;2.97;;;1.10;;
1625;SDS011;806;48.770;9.156;2022-12-11T03:01:55;2.73;;;1.23;;
1625;SDS011;806;48.770;9.156;2022-12-11T03:04:21;4.40;;;1.40;;
1625;SDS011;806;48.770;9.156;2022-12-11T03:06:50;3.37;;;1.53;;
1625;SDS011;806;48.770;9.156;2022-12-11T03:09:20;4.33;;;1.30;;
1625;SDS011;806;48.770;9.156;2022-12-11T03:11:47;2.47;;;1.03;;
1625;SDS011;806;48.770;9.156;2022-12-11T03:14:14;3.50;;;1.40;;
1625;SDS011;806;48.770;9.156;2022-12-11T03:16:44;3.47;;;1.30;;
1625;SDS011;806;48.770;9.156;2022-12-11T03:19:19;3.83;;;1.57;;
1625;SDS011;806;48.770;9.156;2022-12-11T03:21:53;3.83;;;2.07;;
1625;SDS011;806;48.770;9.156;2022-12-11T03:24:26;4.53;;;1.20;;
1625;SDS011;806;48.770;9.156;2022-12-11T03:26:58;2.60;;;1.57;;
1625;SDS011;806;48.770;9.156;2022-12-11T03:29:33;4.07;;;1.43;;
1625;SDS011;806;48.770;9.156;2022-12-11T03:32:07;2.30;;;1.07;;
1625;SDS011;806;48.770;9.156;2022-12-11T03:34:37;2.37;;;1.20;;
1625;SDS011;806;48.770;9.156;2022-12-11T03:37:09;5.03;;;1.50;;
1625;SDS011;806;48.770;9.156;2022-12-11T03:39:37;2.47;;;1.43;;
1625;SDS011;806;48.770;9.156;2022-12-11T03:42:10;2.20;;;1.00;;
1625;SDS011;806;48.770;9.156;2022-12-11T03:44:39;5.70;;;1.97;;
1625;SDS011;806;48.770;9.156;2022-12-11T03:47:10;7.03;;;1.10;;
1625;SDS011;806;48.770;9.156;2022-12-11T03:49:43;4.10;;;1.20;;
1625;SDS011;806;48.770;9.156;2022-12-11T03:52:11;6.93;;;2.27;;
1625;SDS011;806;48.770;9.156;2022-12-11T03:54:40;4.60;;;1.70;;
1625;SDS011;806;48.770;9.156;2022-12-11T03:57:11;5.70;;;1.90;;
1625;SDS011;806;48.770;9.156;2022-12-11T03:59:41;3.20;;;1.33;;
1625;SDS011;806;48.770;9.156;2022-12-11T04:02:08;3.00;;;1.20;;
1625;SDS011;806;48.770;9.156;2022-12-11T04:04:37;3.53;;;1.20;;
1625;SDS011;806;48.770;9.156;2022-12-11T04:07:05;5.57;;;1.37;;
1625;SDS011;806;48.770;9.156;2022-12-11T04:09:32;3.83;;;1.60;;
1625;SDS011;806;48.770;9.156;2022-12-11T04:11:59;6.17;;;1.70;;
1625;SDS011;806;48.770;9.156;2022-12-11T04:14:26;5.07;;;2.20;;
1625;SDS011;806;48.770;9.156;2022-12-11T04:17:10;5.13;;;2.03;;
1625;SDS011;806;48.770;9.156;2022-12-11T04:19:59;10.30;;;2.10;;
1625;SDS011;806;48.770;9.156;2022-12-11T04:22:43;7.07;;;1.50;;
1625;SDS011;806;48.770;9.156;2022-12-11T04:25:27;2.80;;;1.37;;
1625;SDS011;806;48.770;9.156;2022-12-11T04:27:54;8.03;;;2.20;;
1625;SDS011;806;48.770;9.156;2022-12-11T04:30:22;4.87;;;2.17;;
1625;SDS011;806;48.770;9.156;2022-12-11T04:32:49;4.03;;;1.23;;
1625;SDS011;806;48.770;9.156;2022-12-11T04:35:18;7.40;;;2.77;;
1625;SDS011;806;48.770;9.156;2022-12-11T04:37:46;5.47;;;2.00;;
1625;SDS011;806;48.770;9.156;2022-12-11T04:40:14;4.17;;;1.73;;
1625;SDS011;806;48.770;9.156;2022-12-11T04:42:42;4.90;;;1.40;;
1625;SDS011;806;48.770;9.156;2022-12-11T04:45:10;3.87;;;1.87;;
1625;SDS011;806;48.770;9.156;2022-12-11T04:47:38;4.93;;;2.47;;
1625;SDS011;806;48.770;9.156;2022-12-11T04:50:07;5.37;;;2.27;;
1625;SDS011;806;48.770;9.156;2022-12-11T04:52:39;4.13;;;1.43;;
1625;SDS011;806;48.770;9.156;2022-12-11T04:55:07;5.90;;;2.30;;
1625;SDS011;806;48.770;9.156;2022-12-11T04:57:35;2.60;;;1.30;;
1625;SDS011;806;48.770;9.156;2022-12-11T05:00:03;7.73;;;1.97;;
1625;SDS011;806;48.770;9.156;2022-12-11T05:02:33;3.80;;;1.73;;
1625;SDS011;806;48.770;9.156;2022-12-11T05:05:01;3.70;;;1.50;;
1625;SDS011;806;48.770;9.156;2022-12-11T05:07:28;5.63;;;1.60;;
1625;SDS011;806;48.770;9.156;2022-12-11T05:09:57;3.50;;;1.10;;
1625;SDS011;806;48.770;9.156;2022-12-11T05:12:24;3.73;;;1.77;;
1625;SDS011;806;48.770;9.156;2022-12-11T05:14:51;6.93;;;1.97;;
1625;SDS011;806;48.770;9.156;2022-12-11T05:17:18;3.50;;;1.30;;
1625;SDS011;806;48.770;9.156;2022-12-11T05:19:46;6.30;;;1.50;;
1625;SDS011;806;48.770;9.156;2022-12-11T05:22:13;4.73;;;2.27;;
1625;SDS011;806;48.770;9.156;2022-12-11T05:24:41;6.07;;;1.77;;
1625;SDS011;806;48.770;9.156;2022-12-11T05:27:10;5.73;;;2.40;;
1625;SDS011;806;48.770;9.156;2022-12-11T05:29:37;4.80;;;1.30;;
1625;SDS011;806;48.770;9.156;2022-12-11T05:32:04;4.87;;;2.00;;
1625;SDS011;806;48.770;9.156;2022-12-11T05:34:31;8.70;;;1.80;;
1625;SDS011;806;48.770;9.156;2022-12-11T05:36:58;6.67;;;1.40;;
1625;SDS011;806;48.770;9.156;2022-12-11T05:39:25;4.00;;;1.67;;
1625;SDS011;806;48.770;9.156;2022-12-11T05:41:52;3.43;;;1.50;;
1625;SDS011;806;48.770;9.156;2022-12-11T05:44:20;6.20;;;1.60;;
1625;SDS011;806;48.770;9.156;2022-12-11T05:46:47;4.20;;;1.30;;
1625;SDS011;806;48.770;9.156;2022-12-11T05:49:14;6.93;;;1.93;;
1625;SDS011;806;48.770;9.156;2022-12-11T05:51:41;3.57;;;1.37;;
1625;SDS011;806;48.770;9.156;2022-12-11T05:54:09;7.20;;;1.77;;
1625;SDS011;806;48.770;9.156;2022-12-11T05:56:36;5.70;;;1.90;;
1625;SDS011;806;48.770;9.156;2022-12-11T05:59:03;4.83;;;2.03;;
1625;SDS011;806;48.770;9.156;2022-12-11T06:01:33;4.97;;;1.80;;
1625;SDS011;806;48.770;9.156;2022-12-11T06:04:02;5.97;;;1.97;;
1625;SDS011;806;48.770;9.156;2022-12-11T06:06:30;2.00;;;1.57;;
1625;SDS011;806;48.770;9.156;2022-12-11T06:08:58;3.67;;;1.27;;
1625;SDS011;806;48.770;9.156;2022-12-11T06:11:27;3.30;;;1.30;;
1625;SDS011;806;48.770;9.156;2022-12-11T06:13:56;3.80;;;1.70;;
1625;SDS011;806;48.770;9.156;2022-12-11T06:16:23;6.27;;;3.00;;
1625;SDS011;806;48.770;9.156;2022-12-11T06:18:52;3.70;;;1.80;;
1625;SDS011;806;48.770;9.156;2022-12-11T06:21:20;3.60;;;1.60;;
1625;SDS011;806;48.770;9.156;2022-12-11T06:23:49;5.70;;;2.80;;
1625;SDS011;806;48.770;9.156;2022-12-11T06:26:17;4.10;;;1.90;;
1625;SDS011;806;48.770;9.156;2022-12-11T06:28:45;5.17;;;2.73;;
1625;SDS011;806;48.770;9.156;2022-12-11T06:31:13;8.67;;;2.10;;
1625;SDS011;806;48.770;9.156;2022-12-11T06:33:41;7.30;;;3.00;;
1625;SDS011;806;48.770;9.156;2022-12-11T06:36:10;7.50;;;2.30;;
1625;SDS011;806;48.770;9.156;2022-12-11T06:38:38;5.10;;;2.00;;
1625;SDS011;806;48.770;9.156;2022-12-11T06:41:06;3.57;;;1.70;;
1625;SDS011;806;48.770;9.156;2022-12-11T06:43:35;5.47;;;1.70;;
1625;SDS011;806;48.770;9.156;2022-12-11T06:46:03;5.57;;;2.33;;
1625;SDS011;806;48.770;9.156;2022-12-11T06:48:31;4.70;;;2.33;;
1625;SDS011;806;48.770;9.156;2022-12-11T06:50:58;4.90;;;2.00;;
1625;SDS011;806;48.770;9.156;2022-12-11T06:53:26;4.57;;;2.47;;
1625;SDS011;806;48.770;9.156;2022-12-11T06:55:53;6.17;;;2.53;;
1625;SDS011;806;48.770;9.156;2022-12-11T06:58:20;4.20;;;2.63;;
1625;SDS011;806;48.770;9.156;2022-12-11T07:00:47;6.47;;;2.90;;
1625;SDS011;806;48.770;9.156;2022-12-11T07:03:14;6.27;;;2.00;;
1625;SDS011;806;48.770;9.156;2022-12-11T07:05:41;4.17;;;2.03;;
1625;SDS011;806;48.770;9.156;2022-12-11T07:08:08;9.90;;;2.23;;
1625;SDS011;806;48.770;9.156;2022-12-11T07:10:36;7.90;;;2.30;;
1625;SDS011;806;48.770;9.156;2022-12-11T07:13:03;5.77;;;1.83;;
1625;SDS011;806;48.770;9.156;2022-12-11T07:15:30;8.67;;;3.33;;
1625;SDS011;806;48.770;9.156;2022-12-11T07:17:57;4.27;;;2.00;;
1625;SDS011;806;48.770;9.156;2022-12-11T07:20:23;5.63;;;2.30;;
1625;SDS011;806;48.770;9.156;2022-12-11T07:22:50;9.63;;;2.33;;
1625;SDS011;806;48.770;9.156;2022-12-11T07:25:19;8.77;;;2.80;;
1625;SDS011;806;48.770;9.156;2022-12-11T07:27:47;4.43;;;1.50;;
1625;SDS011;806;48.770;9.156;2022-12-11T07:30:14;3.83;;;2.03;;
1625;SDS011;806;48.770;9.156;2022-12-11T07:32:41;6.20;;;1.70;;
1625;SDS011;806;48.770;9.156;2022-12-11T07:35:08;4.40;;;1.30;;
1625;SDS011;806;48.770;9.156;2022-12-11T07:37:35;5.70;;;1.50;;
1625;SDS011;806;48.770;9.156;2022-12-11T07:40:05;5.27;;;1.70;;
1625;SDS011;806;48.770;9.156;2022-12-11T07:42:33;5.10;;;2.00;;
1625;SDS011;806;48.770;9.156;2022-12-11T07:45:02;7.40;;;2.03;;
1625;SDS011;806;48.770;9.156;2022-12-11T07:47:29;6.77;;;4.23;;
1625;SDS011;806;48.770;9.156;2022-12-11T07:49:56;5.40;;;1.70;;
1625;SDS011;806;48.770;9.156;2022-12-11T07:52:23;6.10;;;2.50;;
1625;SDS011;806;48.770;9.156;2022-12-11T07:54:50;5.23;;;2.20;;
1625;SDS011;806;48.770;9.156;2022-12-11T07:57:17;4.27;;;1.83;;
1625;SDS011;806;48.770;9.156;2022-12-11T07:59:45;6.20;;;2.13;;
1625;SDS011;806;48.770;9.156;2022-12-11T08:02:13;6.50;;;1.97;;
1625;SDS011;806;48.770;9.156;2022-12-11T08:04:40;6.30;;;1.90;;
1625;SDS011;806;48.770;9.156;2022-12-11T08:07:07;5.50;;;2.30;;
1625;SDS011;806;48.770;9.156;2022-12-11T08:09:34;7.93;;;1.43;;
1625;SDS011;806;48.770;9.156;2022-12-11T08:12:01;3.60;;;1.90;;
1625;SDS011;806;48.770;9.156;2022-12-11T08:14:28;3.73;;;1.93;;
1625;SDS011;806;48.770;9.156;2022-12-11T08:16:55;4.63;;;1.83;;
1625;SDS011;806;48.770;9.156;2022-12-11T08:19:25;4.30;;;1.60;;
1625;SDS011;806;48.770;9.156;2022-12-11T08:21:52;6.70;;;2.80;;
1625;SDS011;806;48.770;9.156;2022-12-11T08:24:19;6.60;;;2.10;;
1625;SDS011;806;48.770;9.156;2022-12-11T08:26:47;4.77;;;2.17;;
1625;SDS011;806;48.770;9.156;2022-12-11T08:29:14;5.30;;;1.73;;
1625;SDS011;806;48.770;9.156;2022-12-11T08:31:41;4.27;;;1.53;;
1625;SDS011;806;48.770;9.156;2022-12-11T08:34:08;3.77;;;1.73;;
1625;SDS011;806;48.770;9.156;2022-12-11T08:36:39;7.03;;;2.00;;
1625;SDS011;806;48.770;9.156;2022-12-11T08:39:06;6.63;;;1.87;;
1625;SDS011;806;48.770;9.156;2022-12-11T08:41:33;6.77;;;2.37;;
1625;SDS011;806;48.770;9.156;2022-12-11T08:44:00;4.90;;;1.70;;
1625;SDS011;806;48.770;9.156;2022-12-11T08:46:28;5.30;;;1.43;;
1625;SDS011;806;48.770;9.156;2022-12-11T08:48:57;3.43;;;2.17;;
1625;SDS011;806;48.770;9.156;2022-12-11T08:51:25;6.60;;;1.50;;
1625;SDS011;806;48.770;9.156;2022-12-11T08:53:56;6.87;;;1.57;;
1625;SDS011;806;48.770;9.156;2022-12-11T08:56:24;4.87;;;1.63;;
1625;SDS011;806;48.770;9.156;2022-12-11T08:58:51;4.50;;;1.20;;
1625;SDS011;806;48.770;9.156;2022-12-11T09:01:20;6.67;;;1.70;;
1625;SDS011;806;48.770;9.156;2022-12-11T09:03:48;9.17;;;1.80;;
1625;SDS011;806;48.770;9.156;2022-12-11T09:06:16;4.33;;;2.03;;
1625;SDS011;806;48.770;9.156;2022-12-11T09:08:45;7.10;;;2.60;;
1625;SDS011;806;48.770;9.156;2022-12-11T09:11:15;4.67;;;1.60;;
1625;SDS011;806;48.770;9.156;2022-12-11T09:13:45;9.77;;;2.70;;
1625;SDS011;806;48.770;9.156;2022-12-11T09:16:14;5.27;;;2.20;;
1625;SDS011;806;48.770;9.156;2022-12-11T09:18:44;9.27;;;2.60;;
1625;SDS011;806;48.770;9.156;2022-12-11T09:21:14;5.20;;;1.87;;
1625;SDS011;806;48.770;9.156;2022-12-11T09:23:42;5.70;;;2.33;;
1625;SDS011;806;48.770;9.156;2022-12-11T09:26:11;6.73;;;2.37;;
1625;SDS011;806;48.770;9.156;2022-12-11T09:28:40;7.00;;;2.00;;
1625;SDS011;806;48.770;9.156;2022-12-11T09:31:08;5.07;;;1.30;;
1625;SDS011;806;48.770;9.156;2022-12-11T09:33:35;5.30;;;2.10;;
1625;SDS011;806;48.770;9.156;2022-12-11T09:36:06;11.33;;;2.83;;
1625;SDS011;806;48.770;9.156;2022-12-11T09:38:34;11.07;;;1.10;;
1625;SDS011;806;48.770;9.156;2022-12-11T09:41:01;5.60;;;2.37;;
1625;SDS011;806;48.770;9.156;2022-12-11T09:43:56;3.50;;;1.50;;
1625;SDS011;806;48.770;9.156;2022-12-11T09:46:27;5.77;;;1.80;;
1625;SDS011;806;48.770;9.156;2022-12-11T09:48:56;6.50;;;1.60;;
1625;SDS011;806;48.770;9.156;2022-12-11T09:51:25;4.17;;;1.20;;
1625;SDS011;806;48.770;9.156;2022-12-11T09:53:59;3.33;;;1.37;;
1625;SDS011;806;48.770;9.156;2022-12-11T09:56:30;5.43;;;1.40;;
1625;SDS011;806;48.770;9.156;2022-12-11T09:59:07;3.47;;;1.27;;
1625;SDS011;806;48.770;9.156;2022-12-11T10:01:42;2.93;;;1.20;;
1625;SDS011;806;48.770;9.156;2022-12-11T10:07:05;2.87;;;1.77;;
1625;SDS011;806;48.770;9.156;2022-12-11T10:09:42;3.83;;;1.90;;
1625;SDS011;806;48.770;9.156;2022-12-11T10:12:29;6.80;;;2.23;;
1625;SDS011;806;48.770;9.156;2022-12-11T10:15:15;4.63;;;2.77;;
1625;SDS011;806;48.770;9.156;2022-12-11T10:17:51;7.43;;;3.20;;
1625;SDS011;806;48.770;9.156;2022-12-11T10:20:21;12.73;;;2.93;;
1625;SDS011;806;48.770;9.156;2022-12-11T10:22:51;6.70;;;2.30;;
1625;SDS011;806;48.770;9.156;2022-12-11T10:25:19;3.90;;;2.43;;
1625;SDS011;806;48.770;9.156;2022-12-11T10:27:49;3.60;;;1.40;;
1625;SDS011;806;48.770;9.156;2022-12-11T10:30:18;6.10;;;2.60;;
1625;SDS011;806;48.770;9.156;2022-12-11T10:32:50;5.33;;;2.13;;
1625;SDS011;806;48.770;9.156;2022-12-11T10:35:23;6.67;;;2.00;;
1625;SDS011;806;48.770;9.156;2022-12-11T10:37:55;5.30;;;2.30;;
1625;SDS011;806;48.770;9.156;2022-12-11T10:40:27;4.03;;;1.60;;
1625;SDS011;806;48.770;9.156;2022-12-11T10:42:56;10.83;;;1.87;;
1625;SDS011;806;48.770;9.156;2022-12-11T10:45:24;2.97;;;1.40;;
1625;SDS011;806;48.770;9.156;2022-12-11T10:48:00;5.47;;;2.37;;
1625;SDS011;806;48.770;9.156;2022-12-11T10:50:28;4.93;;;1.60;;
1625;SDS011;806;48.770;9.156;2022-12-11T10:52:55;3.00;;;1.30;;
1625;SDS011;806;48.770;9.156;2022-12-11T10:55:24;5.57;;;2.10;;
1625;SDS011;806;48.770;9.156;2022-12-11T10:57:54;5.30;;;1.80;;
1625;SDS011;806;48.770;9.156;2022-12-11T11:00:27;5.23;;;2.63;;
1625;SDS011;806;48.770;9.156;2022-12-11T11:02:57;7.53;;;1.83;;
1625;SDS011;806;48.770;9.156;2022-12-11T11:05:28;5.07;;;2.23;;
1625;SDS011;806;48.770;9.156;2022-12-11T11:08:02;6.03;;;2.33;;
1625;SDS011;806;48.770;9.156;2022-12-11T11:10:36;5.33;;;1.93;;
1625;SDS011;806;48.770;9.156;2022-12-11T11:13:03;5.80;;;2.03;;
1625;SDS011;806;48.770;9.156;2022-12-11T11:15:39;3.57;;;1.50;;
1625;SDS011;806;48.770;9.156;2022-12-11T11:18:08;5.67;;;2.20;;
1625;SDS011;806;48.770;9.156;2022-12-11T11:20:41;4.87;;;1.90;;
1625;SDS011;806;48.770;9.156;2022-12-11T11:23:13;7.67;;;3.00;;
1625;SDS011;806;48.770;9.156;2022-12-11T11:25:48;5.97;;;1.77;;
1625;SDS011;806;48.770;9.156;2022-12-11T11:28:17;4.53;;;1.73;;
1625;SDS011;806;48.770;9.156;2022-12-11T11:31:01;3.53;;;1.73;;
1625;SDS011;806;48.770;9.156;2022-12-11T11:33:34;9.40;;;3.13;;
1625;SDS011;806;48.770;9.156;2022-12-11T11:36:03;5.30;;;2.43;;
1625;SDS011;806;48.770;9.156;2022-12-11T11:38:32;6.87;;;2.83;;
1625;SDS011;806;48.770;9.156;2022-12-11T11:41:04;6.23;;;2.60;;
1625;SDS011;806;48.770;9.156;2022-12-11T11:43:39;8.97;;;4.50;;
1625;SDS011;806;48.770;9.156;2022-12-11T11:46:13;9.87;;;4.80;;
1625;SDS011;806;48.770;9.156;2022-12-11T11:48:52;8.50;;;4.17;;
1625;SDS011;806;48.770;9.156;2022-12-11T11:51:33;5.17;;;3.13;;
1625;SDS011;806;48.770;9.156;2022-12-11T11:54:06;7.27;;;2.40;;
1625;SDS011;806;48.770;9.156;2022-12-11T11:56:45;4.13;;;1.90;;
1625;SDS011;806;48.770;9.156;2022-12-11T11:59:20;6.70;;;2.70;;
1625;SDS011;806;48.770;9.156;2022-12-11T12:01:53;9.80;;;4.37;;
1625;SDS011;806;48.770;9.156;2022-12-11T12:04:22;5.80;;;4.03;;
1625;SDS011;806;48.770;9.156;2022-12-11T12:06:56;8.43;;;4.27;;
1625;SDS011;806;48.770;9.156;2022-12-11T12:09:36;7.07;;;3.80;;
1625;SDS011;806;48.770;9.156;2022-12-11T12:12:12;6.90;;;3.63;;
1625;SDS011;806;48.770;9.156;2022-12-11T12:14:57;5.10;;;2.77;;
1625;SDS011;806;48.770;9.156;2022-12-11T12:17:42;7.40;;;4.03;;
1625;SDS011;806;48.770;9.156;2022-12-11T12:20:18;6.67;;;3.17;;
1625;SDS011;806;48.770;9.156;2022-12-11T12:22:52;3.83;;;2.03;;
1625;SDS011;806;48.770;9.156;2022-12-11T12:25:29;6.50;;;4.10;;
1625;SDS011;806;48.770;9.156;2022-12-11T12:28:04;11.27;;;3.50;;
1625;SDS011;806;48.770;9.156;2022-12-11T12:30:47;7.73;;;3.90;;
1625;SDS011;806;48.770;9.156;2022-12-11T12:33:33;7.10;;;4.27;;
1625;SDS011;806;48.770;9.156;2022-12-11T12:36:10;5.43;;;2.83;;
1625;SDS011;806;48.770;9.156;2022-12-11T12:38:49;10.40;;;4.20;;
1625;SDS011;806;48.770;9.156;2022-12-11T12:41:19;3.60;;;2.03;;
1625;SDS011;806;48.770;9.156;2022-12-11T12:43:53;9.43;;;3.60;;
1625;SDS011;806;48.770;9.156;2022-12-11T12:46:31;10.73;;;3.93;;
1625;SDS011;806;48.770;9.156;2022-12-11T12:49:09;6.57;;;2.73;;
1625;SDS011;806;48.770;9.156;2022-12-11T12:51:40;9.70;;;4.10;;
1625;SDS011;806;48.770;9.156;2022-12-11T12:54:09;4.17;;;2.90;;
1625;SDS011;806;48.770;9.156;2022-12-11T12:56:40;6.97;;;2.80;;
1625;SDS011;806;48.770;9.156;2022-12-11T12:59:17;4.60;;;2.37;;
1625;SDS011;806;48.770;9.156;2022-12-11T13:01:46;10.97;;;4.70;;
1625;SDS011;806;48.770;9.156;2022-12-11T13:04:28;9.70;;;4.83;;
1625;SDS011;806;48.770;9.156;2022-12-11T13:07:09;7.70;;;3.67;;
1625;SDS011;806;48.770;9.156;2022-12-11T13:09:43;8.77;;;4.57;;
1625;SDS011;806;48.770;9.156;2022-12-11T13:12:28;8.40;;;4.13;;
1625;SDS011;806;48.770;9.156;2022-12-11T13:14:57;10.83;;;4.30;;
1625;SDS011;806;48.770;9.156;2022-12-11T13:17:33;9.33;;;3.60;;
1625;SDS011;806;48.770;9.156;2022-12-11T13:20:10;9.47;;;4.07;;
1625;SDS011;806;48.770;9.156;2022-12-11T13:22:46;10.53;;;2.80;;
1625;SDS011;806;48.770;9.156;2022-12-11T13:25:26;5.93;;;2.80;;
1625;SDS011;806;48.770;9.156;2022-12-11T13:28:06;18.20;;;4.83;;
1625;SDS011;806;48.770;9.156;2022-12-11T13:30:44;8.60;;;4.20;;
1625;SDS011;806;48.770;9.156;2022-12-11T13:33:23;11.80;;;3.87;;
1625;SDS011;806;48.770;9.156;2022-12-11T13:36:03;5.53;;;3.03;;
1625;SDS011;806;48.770;9.156;2022-12-11T13:38:48;5.80;;;3.03;;
1625;SDS011;806;48.770;9.156;2022-12-11T13:41:19;10.17;;;4.03;;
1625;SDS011;806;48.770;9.156;2022-12-11T13:43:47;8.73;;;4.53;;
1625;SDS011;806;48.770;9.156;2022-12-11T13:46:18;10.93;;;4.23;;
1625;SDS011;806;48.770;9.156;2022-12-11T13:48:47;5.37;;;2.50;;
1625;SDS011;806;48.770;9.156;2022-12-11T13:51:21;7.93;;;4.10;;
1625;SDS011;806;48.770;9.156;2022-12-11T13:54:00;10.73;;;2.70;;
1625;SDS011;806;48.770;9.156;2022-12-11T13:56:29;7.13;;;4.23;;
1625;SDS011;806;48.770;9.156;2022-12-11T13:58:56;11.33;;;5.27;;
1625;SDS011;806;48.770;9.156;2022-12-11T14:01:23;7.83;;;3.10;;
1625;SDS011;806;48.770;9.156;2022-12-11T14:03:53;12.63;;;4.53;;
1625;SDS011;806;48.770;9.156;2022-12-11T14:06:24;11.37;;;5.00;;
1625;SDS011;806;48.770;9.156;2022-12-11T14:08:53;5.93;;;3.60;;
1625;SDS011;806;48.770;9.156;2022-12-11T14:11:24;8.23;;;5.00;;
1625;SDS011;806;48.770;9.156;2022-12-11T14:13:53;5.47;;;2.53;;
1625;SDS011;806;48.770;9.156;2022-12-11T14:16:23;7.10;;;4.57;;
1625;SDS011;806;48.770;9.156;2022-12-11T14:18:51;9.83;;;5.53;;
1625;SDS011;806;48.770;9.156;2022-12-11T14:21:21;5.57;;;3.20;;
1625;SDS011;806;48.770;9.156;2022-12-11T14:23:51;13.10;;;6.97;;
1625;SDS011;806;48.770;9.156;2022-12-11T14:26:19;11.50;;;4.67;;
1625;SDS011;806;48.770;9.156;2022-12-11T14:28:48;11.20;;;4.97;;
1625;SDS011;806;48.770;9.156;2022-12-11T14:31:17;8.53;;;4.00;;
1625;SDS011;806;48.770;9.156;2022-12-11T14:33:49;11.30;;;3.60;;
1625;SDS011;806;48.770;9.156;2022-12-11T14:36:19;12.10;;;4.07;;
1625;SDS011;806;48.770;9.156;2022-12-11T14:38:48;10.00;;;5.07;;
1625;SDS011;806;48.770;9.156;2022-12-11T14:41:18;9.53;;;3.87;;
1625;SDS011;806;48.770;9.156;2022-12-11T14:43:49;7.97;;;5.00;;
1625;SDS011;806;48.770;9.156;2022-12-11T14:46:20;12.50;;;4.80;;
1625;SDS011;806;48.770;9.156;2022-12-11T14:48:51;7.57;;;4.23;;
1625;SDS011;806;48.770;9.156;2022-12-11T14:51:20;8.00;;;2.77;;
1625;SDS011;806;48.770;9.156;2022-12-11T14:53:50;9.93;;;4.30;;
1625;SDS011;806;48.770;9.156;2022-12-11T14:56:20;9.33;;;4.10;;
1625;SDS011;806;48.770;9.156;2022-12-11T14:58:51;8.50;;;3.90;;
1625;SDS011;806;48.770;9.156;2022-12-11T15:01:23;10.33;;;3.47;;
1625;SDS011;806;48.770;9.156;2022-12-11T15:04:00;13.33;;;3.77;;
1625;SDS011;806;48.770;9.156;2022-12-11T15:06:29;9.40;;;3.63;;
1625;SDS011;806;48.770;9.156;2022-12-11T15:09:13;7.00;;;3.10;;
1625;SDS011;806;48.770;9.156;2022-12-11T15:11:43;7.07;;;2.17;;
1625;SDS011;806;48.770;9.156;2022-12-11T15:14:12;6.53;;;2.47;;
1625;SDS011;806;48.770;9.156;2022-12-11T15:16:41;6.77;;;2.30;;
1625;SDS011;806;48.770;9.156;2022-12-11T15:19:15;10.13;;;3.20;;
1625;SDS011;806;48.770;9.156;2022-12-11T15:21:45;7.10;;;3.67;;
1625;SDS011;806;48.770;9.156;2022-12-11T15:24:22;9.53;;;3.37;;
1625;SDS011;806;48.770;9.156;2022-12-11T15:26:57;10.50;;;3.73;;
1625;SDS011;806;48.770;9.156;2022-12-11T15:29:31;8.13;;;3.57;;
1625;SDS011;806;48.770;9.156;2022-12-11T15:32:03;9.37;;;3.03;;
1625;SDS011;806;48.770;9.156;2022-12-11T15:34:43;8.33;;;4.03;;
1625;SDS011;806;48.770;9.156;2022-12-11T15:37:20;10.57;;;5.20;;
1625;SDS011;806;48.770;9.156;2022-12-11T15:39:49;11.00;;;3.97;;
1625;SDS011;806;48.770;9.156;2022-12-11T15:42:19;7.87;;;2.50;;
1625;SDS011;806;48.770;9.156;2022-12-11T15:44:50;9.03;;;3.40;;
1625;SDS011;806;48.770;9.156;2022-12-11T15:47:20;8.03;;;3.23;;
1625;SDS011;806;48.770;9.156;2022-12-11T15:49:48;12.33;;;4.20;;
1625;SDS011;806;48.770;9.156;2022-12-11T15:52:15;7.77;;;3.53;;
1625;SDS011;806;48.770;9.156;2022-12-11T15:54:42;10.40;;;5.40;;